Latest Coastal Weather Observations for Parndana

IDS60701

Issued at 1:01 pm CST Thursday 1 September 2016 (issued every 10 minutes, with the page automatically refreshed every 10 minutes)

About coastal observations | Map of coastal stations | Coastal observations for SA | Marine services | Other Formats
Station Details ID: 022843 Name: PARNDANA CFS AWS Lat: -35.79 Lon: 137.25 Height: 165.0 m
Data from the previous 72 hours. | See also: Recent months at Parndana
Date/Time
CST
Temp
°C
Wind Pressure Rain since
9am
mm
Weather Cloud Vis
km
Sea
Height
m
Swell
Dir  Spd
kts
Gust
kts
hPa Trend Height
m
Period
s
Dir
01/01:00pm 15.1 ESE 3 5 - - 0.2 - - - - - - -
01/12:30pm 14.5 S 3 5 - - 0.0 - - - - - - -
01/12:00pm 14.5 SSE 2 4 - - 0.0 - - - - - - -
01/11:30am 14.2 E 1 3 - - 0.0 - - - - - - -
01/11:00am 14.3 ESE 3 4 - - 0.0 - - - - - - -
01/10:30am 13.5 SSE 4 6 - - 0.0 - - - - - - -
01/10:00am 12.6 ESE 3 4 - - 0.0 - - - - - - -
01/09:30am 11.6 ENE 2 3 - - 0.0 - - - - - - -
01/09:00am 11.2 ENE 2 4 - - 0.0 - - - - - - -
01/08:30am 10.6 S 2 3 - - 0.0 - - - - - - -
01/08:00am 8.8 WSW 2 3 - - 0.0 - - - - - - -
01/07:30am 7.6 WSW 2 2 - - 0.0 - - - - - - -
01/07:00am 6.9 WSW 2 3 - - 0.0 - - - - - - -
01/06:30am 6.9 WSW 2 3 - - 0.0 - - - - - - -
01/06:00am 6.1 W 2 3 - - 0.0 - - - - - - -
01/05:30am 7.5 CALM 0 0 - - 0.0 - - - - - - -
01/05:00am 5.8 CALM 0 0 - - 0.0 - - - - - - -
01/04:30am 7.7 CALM 0 0 - - 0.0 - - - - - - -
01/04:00am 7.6 CALM 0 0 - - 0.0 - - - - - - -
01/03:30am 6.7 CALM 0 0 - - 0.0 - - - - - - -
01/03:00am 7.0 WNW 2 2 - - 0.0 - - - - - - -
01/02:30am 7.7 NW 3 3 - - 0.0 - - - - - - -
01/02:00am 8.3 NW 3 3 - - 0.0 - - - - - - -
01/01:30am 8.0 NW 4 5 - - 0.0 - - - - - - -
01/01:00am 8.4 N 3 4 - - 0.0 - - - - - - -
01/12:30am 9.2 NNW 3 4 - - 0.0 - - - - - - -
01/12:00am 9.4 CALM 0 2 - - 0.0 - - - - - - -
 
Date/Time
CST
Temp
°C
Wind Pressure Rain since
9am
mm
Weather Cloud Vis
km
Sea
Height
m
Swell
Dir  Spd
kts
Gust
kts
hPa Trend Height
m
Period
s
Dir
31/11:30pm 10.0 WNW 3 3 - - 0.0 - - - - - - -
31/11:00pm 10.2 NW 3 3 - - 0.0 - - - - - - -
31/10:30pm 10.2 NW 3 3 - - 0.0 - - - - - - -
31/10:00pm 10.4 NW 3 5 - - 0.0 - - - - - - -
31/09:30pm 10.5 WNW 2 2 - - 0.0 - - - - - - -
31/09:00pm 10.6 WNW 3 4 - - 0.0 - - - - - - -
31/08:30pm 10.5 WNW 3 3 - - 0.0 - - - - - - -
31/08:00pm 11.0 NW 2 3 - - 0.0 - - - - - - -
31/07:30pm 11.0 WSW 1 5 - - 0.0 - - - - - - -
31/07:00pm 11.5 CALM 0 0 - - 0.0 - - - - - - -
31/06:30pm 11.7 CALM 0 0 - - 0.0 - - - - - - -
31/06:00pm 11.9 SW 2 4 - - 0.0 - - - - - - -
31/05:30pm 12.5 WSW 3 5 - - 0.0 - - - - - - -
31/05:00pm 12.5 SW 7 9 - - 0.0 - - - - - - -
31/04:30pm 13.1 SSW 6 7 - - 0.0 - - - - - - -
31/04:00pm 13.2 S 6 8 - - 0.0 - - - - - - -
31/03:30pm 14.2 WSW 7 9 - - 0.0 - - - - - - -
31/03:00pm 14.3 WSW 8 11 - - 0.0 - - - - - - -
31/02:30pm 14.1 SW 7 10 - - 0.0 - - - - - - -
31/02:00pm 14.4 WSW 11 15 - - 0.0 - - - - - - -
31/01:30pm 13.2 W 11 15 - - 0.0 - - - - - - -
31/01:00pm 13.2 WSW 9 13 - - 0.0 - - - - - - -
31/12:30pm 14.0 WSW 10 13 - - 0.0 - - - - - - -
31/12:00pm 14.0 W 10 13 - - 0.0 - - - - - - -
31/11:30am 14.2 W 10 16 - - 0.0 - - - - - - -
31/11:00am 13.6 W 11 16 - - 0.0 - - - - - - -
31/10:30am 13.9 W 11 14 - - 0.0 - - - - - - -
31/10:00am 13.2 W 13 18 - - 0.0 - - - - - - -
31/09:30am 12.7 W 10 14 - - 0.0 - - - - - - -
31/09:00am 12.8 WNW 9 13 - - 1.2 - - - - - - -
31/08:30am 11.9 WNW 6 10 - - 1.2 - - - - - - -
31/08:00am 10.9 WNW 7 8 - - 1.2 - - - - - - -
31/07:30am 10.1 WNW 6 8 - - 1.2 - - - - - - -
31/07:00am 9.0 NW 5 6 - - 1.2 - - - - - - -
31/06:30am 9.4 WNW 7 8 - - 1.2 - - - - - - -
31/06:00am 10.2 WNW 8 11 - - 1.0 - - - - - - -
31/05:30am 10.6 WNW 10 13 - - 1.0 - - - - - - -
31/05:00am 10.1 NW 7 9 - - 1.0 - - - - - - -
31/04:30am 9.3 NW 6 7 - - 1.0 - - - - - - -
31/04:00am 9.5 NW 7 9 - - 1.0 - - - - - - -
31/03:30am 9.5 WNW 7 8 - - 1.0 - - - - - - -
31/03:00am 9.4 WNW 7 8 - - 1.0 - - - - - - -
31/02:30am 9.8 WNW 8 10 - - 1.0 - - - - - - -
31/02:00am 9.6 WNW 8 9 - - 1.0 - - - - - - -
31/01:30am 9.9 WNW 8 9 - - 1.0 - - - - - - -
31/01:00am 10.0 WNW 7 9 - - 1.0 - - - - - - -
31/12:30am 10.4 WNW 7 8 - - 1.0 - - - - - - -
31/12:00am 11.1 WNW 8 11 - - 1.0 - - - - - - -
 
Date/Time
CST
Temp
°C
Wind Pressure Rain since
9am
mm
Weather Cloud Vis
km
Sea
Height
m
Swell
Dir  Spd
kts
Gust
kts
hPa Trend Height
m
Period
s
Dir
30/11:30pm 10.9 WNW 7 10 - - 1.0 - - - - - - -
30/11:00pm 10.9 WNW 7 8 - - 1.0 - - - - - - -
30/10:30pm 11.1 NW 6 7 - - 1.0 - - - - - - -
30/10:00pm 11.5 NW 7 10 - - 1.0 - - - - - - -
30/09:30pm 11.5 WNW 8 10 - - 1.0 - - - - - - -
30/09:00pm 12.2 NW 6 9 - - 1.0 - - - - - - -
30/08:30pm 11.7 WNW 6 9 - - 1.0 - - - - - - -
30/08:00pm 12.6 WNW 9 12 - - 1.0 - - - - - - -
30/07:30pm 12.8 NW 10 13 - - 1.0 - - - - - - -
30/07:00pm 13.0 NW 11 14 - - 1.0 - - - - - - -
30/06:30pm 13.4 NW 9 14 - - 1.0 - - - - - - -
30/06:00pm 13.6 NW 9 12 - - 1.0 - - - - - - -
30/05:30pm 13.8 NW 7 10 - - 1.0 - - - - - - -
30/05:00pm 14.0 NW 7 10 - - 1.0 - - - - - - -
30/04:30pm 14.1 NW 7 9 - - 1.0 - - - - - - -
30/04:11pm 13.5 NW 15 25 - - 1.0 - - - - - - -
30/04:00pm 15.3 NW 9 12 - - 0.0 - - - - - - -
30/03:30pm 15.7 NW 10 13 - - 0.0 - - - - - - -
30/03:00pm 16.0 NW 11 14 - - 0.0 - - - - - - -
30/02:30pm 16.5 NW 12 18 - - 0.0 - - - - - - -
30/02:00pm 16.3 NNW 11 17 - - 0.0 - - - - - - -
30/01:30pm 15.9 NNW 10 13 - - 0.0 - - - - - - -
30/01:00pm 16.0 NNW 11 18 - - 0.0 - - - - - - -
30/12:30pm 15.5 NNW 9 14 - - 0.0 - - - - - - -
30/12:00pm 15.2 N 9 12 - - 0.0 - - - - - - -
30/11:30am 14.6 N 8 12 - - 0.0 - - - - - - -
30/11:00am 14.4 N 8 10 - - 0.0 - - - - - - -
30/10:30am 14.1 N 7 11 - - 0.0 - - - - - - -
30/10:00am 13.7 N 7 11 - - 0.0 - - - - - - -
30/09:30am 13.5 N 9 13 - - 0.0 - - - - - - -
30/09:00am 13.2 N 10 13 - - 3.0 - - - - - - -
30/08:30am 13.1 N 12 16 - - 3.0 - - - - - - -
30/08:00am 12.7 N 10 14 - - 3.0 - - - - - - -
30/07:30am 12.6 N 9 13 - - 3.0 - - - - - - -
30/07:00am 12.4 N 8 11 - - 3.0 - - - - - - -
30/06:30am 12.3 N 7 10 - - 2.8 - - - - - - -
30/06:00am 12.2 N 7 11 - - 2.8 - - - - - - -
30/05:30am 12.1 N 6 8 - - 2.8 - - - - - - -
30/05:00am 12.2 NNE 7 9 - - 2.8 - - - - - - -
30/04:30am 12.3 N 5 7 - - 2.8 - - - - - - -
30/04:00am 12.5 N 6 7 - - 2.8 - - - - - - -
30/03:30am 12.9 N 8 11 - - 2.6 - - - - - - -
30/03:00am 13.2 NNW 10 16 - - 2.6 Rain - - - - - -
30/02:30am 13.1 NNW 7 10 - - 2.2 - - - - - - -
30/02:00am 13.1 N 6 10 - - 2.2 - - - - - - -
30/01:30am 13.2 N 8 11 - - 2.0 - - - - - - -
30/01:00am 13.2 NNE 8 13 - - 1.8 - - - - - - -
30/12:30am 13.2 N 11 17 - - 1.8 - - - - - - -
30/12:00am 13.4 NNE 12 18 - - 1.8 - - - - - - -
 
Date/Time
CST
Temp
°C
Wind Pressure Rain since
9am
mm
Weather Cloud Vis
km
Sea
Height
m
Swell
Dir  Spd
kts
Gust
kts
hPa Trend Height
m
Period
s
Dir
29/11:30pm 13.5 NNE 11 16 - - 1.8 - - - - - - -
29/11:00pm 13.3 NNE 10 14 - - 1.8 - - - - - - -
29/10:30pm 13.2 NNE 13 19 - - 1.8 - - - - - - -
29/10:00pm 13.5 NNE 12 17 - - 1.8 - - - - - - -
29/09:30pm 13.3 NNE 12 17 - - 1.8 - - - - - - -
29/09:00pm 13.6 NNE 14 20 - - 1.8 - - - - - - -
29/08:30pm 13.3 NNE 12 19 - - 1.8 - - - - - - -
29/08:00pm 12.9 NE 12 16 - - 1.8 - - - - - - -
29/07:30pm 13.2 NNE 11 16 - - 1.8 - - - - - - -
29/07:00pm 13.6 N 16 22 - - 0.8 - - - - - - -
29/06:30pm 14.6 NNE 13 19 - - 0.2 - - - - - - -
29/06:00pm 14.7 NE 12 18 - - 0.2 - - - - - - -
29/05:30pm 14.6 NE 10 16 - - 0.2 - - - - - - -
29/05:00pm 14.2 NE 9 13 - - 0.2 - - - - - - -
29/04:30pm 14.2 NNE 11 17 - - 0.2 - - - - - - -
29/04:00pm 15.1 NE 11 16 - - 0.0 - - - - - - -
29/03:30pm 15.9 NE 12 16 - - 0.0 - - - - - - -
29/03:00pm 16.0 NNE 13 21 - - 0.0 - - - - - - -
29/02:30pm 16.8 NNE 13 18 - - 0.0 - - - - - - -
29/02:00pm 16.1 NNE 14 22 - - 0.0 - - - - - - -
29/01:30pm 15.6 NNE 16 26 - - 0.0 - - - - - - -

Other Formats:

Comma delimited format used in spreadsheet applications
http://www.bom.gov.au/fwo/IDS60701/IDS60701.94807.axf

JavaScript Object Notation format (JSON) in row-major order
http://www.bom.gov.au/fwo/IDS60701/IDS60701.94807.json